Time;durP1;ratioP1;P1;durP2;ratioP2;P2;SDS_P1;SDS_P2;PMS_P1;PMS_P2;Temp;Humidity;BMP_temperature;BMP_pressure;BME280_temperature;BME280_humidity;BME280_pressure;Samples;Min_cycle;Max_cycle;Signal;HPM_P1;HPM_P2
2023/04/11 00:01:06;;;;;;;18.73;9.40;;;;;;;8.73;82.95;100302.19;4902136;29;20167;-86
2023/04/11 00:03:33;;;;;;;18.40;9.48;;;;;;;8.71;83.17;100297.00;4928421;29;20046;-87
2023/04/11 00:05:58;;;;;;;19.63;10.15;;;;;;;8.68;84.58;100299.16;4941516;29;20055;-87
2023/04/11 00:08:25;;;;;;;19.73;10.38;;;;;;;8.80;84.29;100311.28;4904632;29;20056;-85
2023/04/11 00:10:53;;;;;;;19.88;10.73;;;;;;;8.58;84.67;100285.88;4900752;29;20147;-87
2023/04/11 00:13:19;;;;;;;18.27;9.85;;;;;;;8.77;85.42;100311.63;4913695;29;20040;-85
2023/04/11 00:15:46;;;;;;;21.17;10.70;;;;;;;8.69;85.26;100303.53;4903272;29;20044;-86
2023/04/11 00:18:12;;;;;;;19.95;10.75;;;;;;;8.57;85.79;100285.03;4915929;29;20115;-83
2023/04/11 00:20:43;;;;;;;19.17;10.50;;;;;;;8.59;86.43;100290.22;4866647;29;20143;-85
2023/04/11 00:23:14;;;;;;;18.40;10.13;;;;;;;8.48;86.46;100271.75;4914549;29;20092;-84
2023/04/11 00:25:42;;;;;;;19.77;10.88;;;;;;;8.53;86.78;100280.97;4900383;29;20051;-84
2023/04/11 00:28:08;;;;;;;19.75;10.23;;;;;;;8.60;87.03;100290.06;4898039;29;20052;-84
2023/04/11 00:30:39;;;;;;;21.85;10.65;;;;;;;8.53;87.86;100272.09;4913680;29;20083;-83
2023/04/11 00:33:05;;;;;;;19.60;9.60;;;;;;;8.41;88.17;100276.88;4902199;29;20091;-84
2023/04/11 00:35:34;;;;;;;19.70;10.32;;;;;;;8.30;88.64;100255.66;4918021;29;20058;-84
2023/04/11 00:38:02;;;;;;;21.58;10.45;;;;;;;8.51;88.64;100274.09;4919654;29;20039;-84
2023/04/11 00:40:28;;;;;;;20.73;10.20;;;;;;;8.44;89.02;100257.81;4903832;29;20174;-83
2023/04/11 00:43:17;;;;;;;17.98;10.13;;;;;;;8.41;89.24;100252.78;4904409;29;20113;-82
2023/04/11 00:45:43;;;;;;;21.35;10.07;;;;;;;8.36;89.80;100249.69;4916149;29;20137;-84
2023/04/11 00:48:12;;;;;;;17.77;10.25;;;;;;;8.36;89.98;100252.38;4884378;29;20079;-81
2023/04/11 00:50:43;;;;;;;18.17;9.95;;;;;;;8.38;90.00;100245.00;4921264;29;20140;-83
2023/04/11 00:53:12;;;;;;;19.73;9.75;;;;;;;8.36;90.00;100233.63;4912919;29;20047;-83
2023/04/11 00:55:40;;;;;;;19.92;10.55;;;;;;;8.40;89.82;100229.63;4895767;29;20103;-83
2023/04/11 00:58:07;;;;;;;18.38;10.25;;;;;;;8.34;90.62;100219.53;4907992;29;20055;-83
2023/04/11 01:00:34;;;;;;;17.33;10.15;;;;;;;8.36;89.92;100218.38;4906541;29;20051;-82
2023/04/11 01:03:07;;;;;;;18.23;10.35;;;;;;;8.41;89.30;100217.94;4898962;29;20043;-82
2023/04/11 01:05:32;;;;;;;17.60;9.70;;;;;;;8.31;89.29;100218.03;4921954;29;20481;-81
2023/04/11 01:08:00;;;;;;;19.27;10.73;;;;;;;8.39;89.17;100231.44;4917193;29;20066;-82
2023/04/11 01:10:31;;;;;;;20.50;11.15;;;;;;;8.42;89.32;100228.47;4914739;29;20115;-83
2023/04/11 01:12:59;;;;;;;18.02;10.15;;;;;;;8.38;90.43;100216.38;4928041;29;20051;-82
2023/04/11 01:15:28;;;;;;;20.95;10.45;;;;;;;8.23;90.32;100188.50;4880550;29;20091;-83
2023/04/11 01:17:54;;;;;;;20.17;10.32;;;;;;;8.21;90.28;100167.22;4909990;29;20044;-83
2023/04/11 01:20:21;;;;;;;20.92;10.38;;;;;;;8.41;90.37;100197.34;4882990;29;20054;-84
2023/04/11 01:22:48;;;;;;;17.60;10.50;;;;;;;8.49;90.71;100201.91;4896993;29;20115;-83
2023/04/11 01:25:14;;;;;;;19.38;10.35;;;;;;;8.39;91.13;100201.97;4927215;29;20233;-83
2023/04/11 01:27:41;;;;;;;19.60;10.23;;;;;;;8.28;90.70;100163.91;4892363;29;20065;-82
2023/04/11 01:30:08;;;;;;;;;;;;;;;8.53;90.42;100192.56;4903861;29;20044;-83
2023/04/11 01:32:34;;;;;;;16.80;9.68;;;;;;;8.55;90.15;100184.38;4905497;29;19919;-84
2023/04/11 01:35:01;;;;;;;18.33;10.43;;;;;;;8.49;90.48;100179.63;4908244;29;20116;-84
2023/04/11 01:37:29;;;;;;;17.83;10.48;;;;;;;8.48;90.80;100172.63;4907276;29;20054;-83
2023/04/11 01:39:57;;;;;;;17.88;10.88;;;;;;;8.42;91.22;100145.44;4882036;29;20142;-84
2023/04/11 01:42:24;;;;;;;20.00;10.50;;;;;;;8.60;90.94;100157.94;4912602;29;20095;-82
2023/04/11 01:44:51;;;;;;;21.05;10.63;;;;;;;8.55;90.69;100136.97;4910957;29;20051;-82
2023/04/11 01:47:16;;;;;;;19.88;10.95;;;;;;;8.43;91.14;100123.03;4881855;29;20515;-82
2023/04/11 01:49:42;;;;;;;20.35;10.80;;;;;;;8.57;91.18;100145.69;4923088;29;20048;-82
2023/04/11 01:52:07;;;;;;;21.92;11.43;;;;;;;8.54;91.40;100139.81;4895926;29;20122;-85
2023/04/11 01:54:33;;;;;;;23.67;11.27;;;;;;;8.53;91.53;100133.63;4913135;29;20040;-82
2023/04/11 01:57:00;;;;;;;21.67;11.25;;;;;;;8.53;91.12;100128.25;4917226;29;20047;-83
2023/04/11 01:59:28;;;;;;;21.00;10.93;;;;;;;8.61;91.55;100120.22;4914040;29;20047;-83
2023/04/11 02:01:57;;;;;;;21.55;12.00;;;;;;;8.46;91.62;100089.72;4924844;29;20528;-84
2023/04/11 02:04:23;;;;;;;22.35;11.77;;;;;;;8.61;91.48;100133.63;4912800;29;20072;-83
2023/04/11 02:06:49;;;;;;;19.25;10.90;;;;;;;8.57;91.78;100113.53;4903912;29;20094;-84
2023/04/11 02:09:15;;;;;;;21.08;11.55;;;;;;;8.53;92.12;100122.91;4889777;29;20052;-84
2023/04/11 02:11:41;;;;;;;21.88;11.75;;;;;;;8.65;91.84;100120.75;4913137;29;20059;-84
2023/04/11 02:14:08;;;;;;;18.50;11.10;;;;;;;8.65;91.80;100120.75;4910068;29;20051;-83
2023/04/11 02:16:54;;;;;;;19.75;11.38;;;;;;;8.59;92.58;100106.19;4915076;29;20054;-82
2023/04/11 02:19:21;;;;;;;;;;;;;;;8.58;93.12;100109.84;4907832;29;20142;-83
2023/04/11 02:21:49;;;;;;;17.92;10.75;;;;;;;8.64;92.74;100103.84;4931437;29;20472;-83
2023/04/11 02:24:15;;;;;;;17.88;10.57;;;;;;;8.56;93.23;100086.91;4915404;29;20040;-82
2023/04/11 02:26:42;;;;;;;19.83;10.18;;;;;;;8.52;93.67;100078.34;4930520;29;20420;-80
2023/04/11 02:29:08;;;;;;;15.95;9.43;;;;;;;8.22;92.81;100018.94;4933984;29;20036;-83
2023/04/11 02:31:33;;;;;;;16.38;8.43;;;;;;;8.43;91.52;100069.44;4904333;29;20044;-82
2023/04/11 02:33:59;;;;;;;12.30;7.63;;;;;;;8.51;90.92;100068.63;4886447;29;20044;-81
2023/04/11 02:36:27;;;;;;;13.40;8.15;;;;;;;8.38;91.02;100044.09;4904594;29;20193;-81
2023/04/11 02:38:56;;;;;;;12.32;7.88;;;;;;;8.57;90.43;100051.06;4930634;29;20118;-80
2023/04/11 02:41:25;;;;;;;13.77;8.00;;;;;;;8.61;90.76;100037.16;4905118;29;20054;-81
2023/04/11 02:43:51;;;;;;;14.35;8.68;;;;;;;8.55;91.41;100020.94;4914590;29;20055;-81
2023/04/11 02:46:17;;;;;;;14.15;9.00;;;;;;;8.50;91.82;100018.75;4890269;29;20044;-81
2023/04/11 02:48:44;;;;;;;16.40;9.68;;;;;;;8.55;92.50;100023.59;4927856;29;20048;-81
2023/04/11 02:51:10;;;;;;;16.90;9.10;;;;;;;8.64;92.00;100011.91;4898324;29;20127;-82
2023/04/11 02:53:35;;;;;;;16.80;9.57;;;;;;;8.55;92.07;100019.09;4914974;29;20153;-83
2023/04/11 02:56:03;;;;;;;18.13;10.50;;;;;;;8.55;91.37;100003.00;4922963;29;20092;-82
2023/04/11 02:58:29;;;;;;;17.80;10.88;;;;;;;8.58;91.79;100007.19;4898932;29;20400;-83
2023/04/11 03:00:55;;;;;;;19.92;11.05;;;;;;;8.68;91.54;100013.22;4915276;29;20055;-82
2023/04/11 03:03:21;;;;;;;19.42;11.68;;;;;;;8.63;91.40;100004.84;4907665;29;20421;-81
2023/04/11 03:05:49;;;;;;;20.38;12.75;;;;;;;8.56;91.65;99993.13;4922507;29;20365;-81
2023/04/11 03:08:15;;;;;;;21.60;13.43;;;;;;;8.73;91.38;100007.38;4917028;29;20133;-81
2023/04/11 03:10:42;;;;;;;23.25;14.05;;;;;;;8.78;91.30;99997.00;4924011;29;20457;-82
2023/04/11 03:13:07;;;;;;;23.33;14.20;;;;;;;8.75;91.28;99998.16;4900893;29;20059;-81
2023/04/11 03:15:33;;;;;;;23.15;15.02;;;;;;;8.70;91.47;99999.69;4894689;29;20062;-82
2023/04/11 03:17:58;;;;;;;24.35;15.30;;;;;;;8.65;91.44;99976.88;4897979;29;20075;-82
2023/04/11 03:20:26;;;;;;;22.05;15.07;;;;;;;8.77;91.18;99973.91;4911422;29;20043;-81
2023/04/11 03:22:52;;;;;;;25.35;15.85;;;;;;;8.77;91.40;99995.34;4914411;29;20054;-81
2023/04/11 03:25:17;;;;;;;26.70;15.57;;;;;;;8.60;91.38;99963.16;4911542;29;20047;-81
2023/04/11 03:27:43;;;;;;;26.35;15.50;;;;;;;8.73;91.13;99985.94;4916172;29;20078;-81
2023/04/11 03:30:09;;;;;;;25.20;15.43;;;;;;;8.77;91.69;100006.88;4898066;29;20054;-81
2023/04/11 03:32:37;;;;;;;28.88;16.30;;;;;;;8.72;92.51;99986.97;4920051;29;20331;-82
2023/04/11 03:35:03;;;;;;;26.85;17.65;;;;;;;8.60;93.57;99983.75;4885329;29;20032;-83
2023/04/11 03:37:29;;;;;;;27.05;17.67;;;;;;;8.52;94.37;99981.91;4910943;29;20477;-81
2023/04/11 03:39:54;;;;;;;27.30;17.73;;;;;;;8.60;94.35;99995.31;4902673;29;20118;-83
2023/04/11 03:42:20;;;;;;;30.95;19.17;;;;;;;8.57;95.52;99990.28;4916074;29;20119;-82
2023/04/11 03:44:45;;;;;;;30.90;19.02;;;;;;;8.62;96.21;99993.31;4900762;29;20044;-81
2023/04/11 03:47:12;;;;;;;30.58;18.27;;;;;;;8.61;95.78;99988.09;4890680;29;20058;-84
2023/04/11 03:49:39;;;;;;;31.95;18.75;;;;;;;8.22;96.79;99954.66;4916785;29;20089;-85
2023/04/11 03:52:10;;;;;;;31.70;19.25;;;;;;;8.22;97.88;99962.72;4924315;29;20040;-84
2023/04/11 03:54:38;;;;;;;30.45;19.33;;;;;;;8.40;97.64;99989.38;4925627;29;20124;-85
2023/04/11 03:57:08;;;;;;;34.00;19.02;;;;;;;8.45;97.80;99995.13;4900115;29;20043;-84
2023/04/11 03:59:34;;;;;;;30.55;19.52;;;;;;;8.38;97.92;99969.09;4933863;29;20036;-83
2023/04/11 04:02:01;;;;;;;34.03;20.50;;;;;;;8.46;98.12;99995.94;4883680;29;20039;-84
2023/04/11 04:04:31;;;;;;;29.30;17.58;;;;;;;8.45;96.48;99980.84;4901359;29;20131;-85
2023/04/11 04:07:00;;;;;;;26.58;17.60;;;;;;;8.41;95.97;99975.00;4916006;29;20040;-84
2023/04/11 04:09:26;;;;;;;25.75;15.07;;;;;;;8.45;95.52;99994.25;4901754;29;20102;-85
2023/04/11 04:11:51;;;;;;;20.70;13.77;;;;;;;8.41;94.69;99985.72;4886674;29;20425;-83
2023/04/11 04:14:18;;;;;;;21.40;13.60;;;;;;;8.30;94.04;99961.06;4921757;29;20599;-83
2023/04/11 04:16:44;;;;;;;17.17;11.10;;;;;;;8.41;93.92;99979.53;4878935;29;20066;-86
2023/04/11 04:19:09;;;;;;;16.05;10.20;;;;;;;8.06;92.95;99932.38;4913525;29;20040;-86
2023/04/11 04:21:36;;;;;;;18.58;10.73;;;;;;;8.16;93.00;99955.31;4887877;29;20039;-87
2023/04/11 04:24:03;;;;;;;16.40;11.15;;;;;;;8.05;92.87;99936.88;4919711;29;20483;-88
2023/04/11 04:26:30;;;;;;;18.70;12.27;;;;;;;8.12;92.56;99940.56;4906691;29;20151;-86
2023/04/11 04:29:03;;;;;;;18.42;10.95;;;;;;;7.93;92.78;99911.41;4912829;29;20422;-88
2023/04/11 04:31:34;;;;;;;16.52;10.25;;;;;;;8.19;93.28;99946.97;4888773;29;20083;-84
2023/04/11 04:34:07;;;;;;;17.55;11.18;;;;;;;8.08;93.61;99931.19;4916953;29;20040;-82
2023/04/11 04:36:45;;;;;;;19.10;12.38;;;;;;;8.12;94.93;99947.75;4931026;29;20058;-83
2023/04/11 04:39:16;;;;;;;17.30;11.02;;;;;;;7.91;94.27;99922.25;4938295;29;20107;-85
2023/04/11 04:41:56;;;;;;;16.65;11.30;;;;;;;7.95;94.48;99926.28;4927540;29;20044;-85
2023/04/11 04:44:24;;;;;;;20.33;12.40;;;;;;;7.94;94.25;99937.19;4915891;29;20035;-84
2023/04/11 04:46:54;;;;;;;21.08;13.05;;;;;;;7.92;94.17;99923.94;4925331;29;20044;-85
2023/04/11 04:49:22;;;;;;;18.73;12.40;;;;;;;7.94;94.33;99924.63;4895358;29;20051;-86
2023/04/11 04:51:47;;;;;;;21.95;13.90;;;;;;;7.86;93.83;99908.53;4931259;29;20804;-85
2023/04/11 04:54:18;;;;;;;19.48;12.63;;;;;;;7.90;94.21;99912.56;4900296;29;20051;-83
2023/04/11 04:56:43;;;;;;;20.40;12.35;;;;;;;7.92;94.19;99905.22;4932053;29;20071;-83
2023/04/11 04:59:13;;;;;;;17.23;11.25;;;;;;;7.88;93.31;99893.16;4928781;29;20035;-84
2023/04/11 05:01:40;;;;;;;16.25;10.90;;;;;;;7.92;93.45;99901.72;4913629;29;20051;-85
2023/04/11 05:04:05;;;;;;;16.70;11.05;;;;;;;7.93;94.00;99903.38;4913340;29;20521;-82
2023/04/11 05:06:32;;;;;;;19.65;11.27;;;;;;;7.98;93.59;99895.69;4928161;29;20141;-84
2023/04/11 05:09:00;;;;;;;17.40;11.23;;;;;;;8.07;93.67;99912.63;4897654;29;20500;-86
2023/04/11 05:11:27;;;;;;;20.42;12.15;;;;;;;7.91;93.60;99878.59;4925533;29;20469;-84
2023/04/11 05:13:54;;;;;;;20.17;11.52;;;;;;;8.05;93.25;99899.38;4911143;29;20127;-82
2023/04/11 05:16:23;;;;;;;16.38;10.45;;;;;;;8.05;92.79;99883.31;4925912;29;20427;-82
2023/04/11 05:18:49;;;;;;;16.88;11.23;;;;;;;7.76;93.55;99849.78;4913887;29;20055;-82
2023/04/11 05:21:16;;;;;;;16.88;10.50;;;;;;;7.86;93.42;99846.97;4908133;29;20503;-84
2023/04/11 05:23:42;;;;;;;16.95;10.25;;;;;;;8.03;93.03;99870.13;4918901;29;20039;-85
2023/04/11 05:26:08;;;;;;;20.25;10.05;;;;;;;7.98;93.18;99859.06;4933191;29;20036;-85
2023/04/11 05:28:34;;;;;;;16.00;9.60;;;;;;;8.03;92.80;99864.75;4916184;29;20051;-85
2023/04/11 05:31:02;;;;;;;12.90;8.73;;;;;;;8.04;93.10;99857.56;4897589;29;20051;-83
2023/04/11 05:33:28;;;;;;;15.18;9.45;;;;;;;8.08;92.52;99860.72;4927837;29;20039;-82
2023/04/11 05:35:54;;;;;;;14.48;8.25;;;;;;;8.04;92.24;99828.13;4905712;29;20520;-83
2023/04/11 05:38:20;;;;;;;12.88;9.18;;;;;;;8.15;91.65;99849.22;4882643;29;20043;-85
2023/04/11 05:40:45;;;;;;;17.30;9.65;;;;;;;8.24;92.97;99860.75;4891555;29;20044;-85
2023/04/11 05:43:13;;;;;;;14.52;10.05;;;;;;;8.23;92.73;99843.03;4890449;29;20032;-84
2023/04/11 05:45:40;;;;;;;14.70;9.05;;;;;;;8.25;92.33;99847.22;4900518;29;20164;-86
2023/04/11 05:48:07;;;;;;;13.43;8.80;;;;;;;8.34;91.90;99848.06;4917724;29;20054;-83
2023/04/11 05:50:35;;;;;;;15.13;8.80;;;;;;;8.19;92.79;99821.13;4894734;29;20051;-83
2023/04/11 05:53:00;;;;;;;14.18;9.23;;;;;;;8.40;92.56;99851.94;4909167;29;20135;-82
2023/04/11 05:55:28;;;;;;;13.75;8.88;;;;;;;8.39;92.11;99850.25;4924766;29;20053;-82
2023/04/11 05:57:54;;;;;;;13.32;8.88;;;;;;;8.39;92.33;99843.03;4937176;29;20099;-85
2023/04/11 06:00:21;;;;;;;13.38;8.85;;;;;;;8.45;92.75;99839.75;4895620;29;20047;-84
2023/04/11 06:02:47;;;;;;;12.80;9.10;;;;;;;8.47;93.04;99834.19;4934078;29;20154;-83
2023/04/11 06:05:16;;;;;;;15.63;9.45;;;;;;;8.44;92.46;99829.19;4930388;29;20031;-82
2023/04/11 06:07:42;;;;;;;13.45;9.20;;;;;;;8.42;92.49;99836.53;4916686;29;20488;-82
2023/04/11 06:10:11;;;;;;;15.23;9.18;;;;;;;8.43;92.91;99848.97;4895490;29;20184;-85
2023/04/11 06:12:36;;;;;;;12.90;7.65;;;;;;;8.38;92.34;99836.03;4910061;29;20044;-83
2023/04/11 06:15:02;;;;;;;12.50;8.15;;;;;;;8.22;93.30;99798.53;4930709;29;20222;-82
2023/04/11 06:17:28;;;;;;;12.23;7.68;;;;;;;8.44;93.69;99830.00;4885029;29;20040;-82
2023/04/11 06:19:54;;;;;;;11.13;7.60;;;;;;;8.14;93.32;99790.47;4911663;29;20472;-82
2023/04/11 06:22:20;;;;;;;13.20;8.30;;;;;;;8.31;93.86;99827.00;4884137;29;20134;-82
2023/04/11 06:24:47;;;;;;;10.93;7.82;;;;;;;8.36;93.71;99821.97;4899079;29;20043;-82
2023/04/11 06:27:15;;;;;;;12.70;9.00;;;;;;;8.20;94.20;99795.19;4929435;29;20047;-85
2023/04/11 06:29:42;;;;;;;11.63;8.18;;;;;;;8.17;93.39;99791.00;4908420;29;20054;-83
2023/04/11 06:32:12;;;;;;;11.18;8.32;;;;;;;8.33;93.16;99811.56;4910388;29;20031;-89
2023/04/11 06:34:38;;;;;;;12.57;8.27;;;;;;;8.34;93.15;99807.06;4924154;29;20076;-84
2023/04/11 06:37:06;;;;;;;12.15;7.85;;;;;;;8.43;92.41;99811.47;4914406;29;20033;-83
2023/04/11 06:39:33;;;;;;;11.65;8.40;;;;;;;8.26;93.14;99789.13;4912064;29;20042;-83
2023/04/11 06:41:58;;;;;;;;;;;;;;;8.47;93.47;99806.59;4899599;29;20052;-85
2023/04/11 06:44:24;;;;;;;10.18;7.88;;;;;;;8.39;93.35;99792.16;4928227;29;19925;-85
2023/04/11 06:46:52;;;;;;;11.65;7.32;;;;;;;8.29;92.39;99782.59;4915505;29;20138;-81
2023/04/11 06:49:22;;;;;;;12.35;7.85;;;;;;;8.34;94.14;99793.69;4882229;29;20427;-84
2023/04/11 06:51:50;;;;;;;11.30;7.05;;;;;;;8.32;92.38;99777.75;4926301;29;20128;-85
2023/04/11 06:54:19;;;;;;;10.07;6.80;;;;;;;8.36;92.19;99764.88;4899983;29;20036;-84
2023/04/11 06:56:45;;;;;;;9.23;6.38;;;;;;;8.35;91.41;99765.88;4897889;29;20457;-91
2023/04/11 06:59:10;;;;;;;9.73;6.75;;;;;;;8.45;92.14;99775.47;4907909;29;20476;-84
2023/04/11 07:01:39;;;;;;;9.77;6.10;;;;;;;8.44;91.17;99759.53;4899050;29;20074;-84
2023/04/11 07:04:06;;;;;;;10.40;6.07;;;;;;;8.28;91.31;99735.41;4902179;29;20046;-84
2023/04/11 07:06:34;;;;;;;10.45;7.00;;;;;;;8.39;91.94;99760.00;4920878;29;20106;-85
2023/04/11 07:09:00;;;;;;;9.25;6.22;;;;;;;8.39;91.68;99767.22;4931354;29;20047;-85
2023/04/11 07:11:30;;;;;;;10.52;6.10;;;;;;;8.45;92.18;99778.13;4898813;29;20087;-85
2023/04/11 07:13:56;;;;;;;9.80;5.85;;;;;;;8.48;91.61;99765.41;4910657;29;20044;-84
2023/04/11 07:16:22;;;;;;;10.57;6.80;;;;;;;8.57;92.79;99770.59;4915732;29;20048;-87
2023/04/11 07:19:04;;;;;;;;;;;;;;;8.57;92.14;99770.59;4934141;29;20536;-93
2023/04/11 07:22:18;;;;;;;7.40;5.22;;;;;;;8.23;90.93;99711.81;4909768;29;19919;-94
2023/04/11 07:28:12;;;;;;;7.70;4.90;;;;;;;8.52;90.25;99723.84;5086476;23;20055;-96
2023/04/11 07:31:00;;;;;;;6.55;4.68;;;;;;;8.61;90.12;99750.47;4931067;28;20047;-94
2023/04/11 07:36:50;;;;;;;7.90;5.30;;;;;;;8.60;91.08;99726.53;4959515;28;20126;-95
2023/04/11 07:39:20;;;;;;;;;;;;;;;8.86;90.93;99761.13;5007359;23;20075;-93
2023/04/11 07:42:01;;;;;;;7.95;5.00;;;;;;;8.69;89.73;99720.16;4952852;29;19961;-94
2023/04/11 07:44:58;;;;;;;6.95;4.28;;;;;;;8.57;90.19;99705.44;4973178;23;20469;-95
2023/04/11 07:47:43;;;;;;;6.28;4.20;;;;;;;8.71;88.85;99730.69;4892683;29;20144;-94
2023/04/11 07:50:19;;;;;;;6.30;3.85;;;;;;;8.44;89.41;99701.44;4914231;29;20063;-93
2023/04/11 07:52:52;;;;;;;5.43;3.45;;;;;;;8.44;87.99;99689.91;4895907;29;20032;-94
2023/04/11 07:55:19;;;;;;;8.82;5.80;;;;;;;8.72;88.89;99735.06;4916850;29;20112;-90
2023/04/11 07:58:15;;;;;;;6.43;4.10;;;;;;;8.71;89.86;99725.31;4973355;23;20043;-95
2023/04/11 08:00:53;;;;;;;6.32;4.25;;;;;;;8.71;88.77;99722.63;4940423;29;20054;-93
2023/04/11 08:03:19;;;;;;;5.30;3.55;;;;;;;8.48;88.86;99679.69;4928360;29;20040;-93
2023/04/11 08:09:11;;;;;;;9.65;5.40;;;;;;;8.72;90.73;99703.72;4924333;29;20051;-93
2023/04/11 08:18:11;;;;;;;;;;;;;;;9.02;90.38;99709.31;5054013;23;20043;-92
2023/04/11 08:21:13;;;;;;;9.52;5.03;;;;;;;8.99;90.76;99705.16;3851082;23;20210;31
2023/04/11 08:29:28;;;;;;;5.15;3.30;;;;;;;8.95;88.43;99698.44;5764532;23;19930;-94
2023/04/11 08:38:18;;;;;;;7.25;3.58;;;;;;;9.13;88.55;99678.59;5141372;23;21499;-94
2023/04/11 09:19:05;;;;;;;6.47;4.18;;;;;;;9.34;86.00;99614.44;4955566;29;20070;-95
2023/04/11 09:22:11;;;;;;;6.55;3.40;;;;;;;9.28;85.21;99604.41;4926359;29;20051;-93
2023/04/11 09:25:12;;;;;;;6.38;3.95;;;;;;;9.27;86.16;99611.63;4911137;29;20048;-95
2023/04/11 09:38:08;;;;;;;8.20;4.53;;;;;;;9.16;87.50;99573.66;5051619;23;20099;-96
2023/04/11 09:41:08;;;;;;;5.93;3.55;;;;;;;9.18;86.88;99568.97;4934267;29;20055;-95
2023/04/11 12:07:54;;;;;;;5.32;3.80;;;;;;;10.03;87.26;99428.25;5736023;23;20031;-96
2023/04/11 12:23:06;;;;;;;5.55;3.25;;;;;;;10.28;83.98;99416.19;5256437;23;20051;-96
2023/04/11 12:26:01;;;;;;;5.03;3.20;;;;;;;10.11;83.54;99380.63;5007007;23;20130;-94
2023/04/11 13:48:36;;;;;;;5.65;3.03;;;;;;;8.85;92.79;99310.03;4982466;28;20039;-93
2023/04/11 14:14:58;;;;;;;4.13;2.22;;;;;;;8.98;92.47;99295.97;4929175;28;20056;-94
2023/04/11 14:18:06;;;;;;;4.05;2.75;;;;;;;9.29;92.33;99332.50;4926935;28;20074;-92
2023/04/11 14:20:41;;;;;;;4.07;2.38;;;;;;;9.00;91.71;99285.91;4917414;29;20060;-94
2023/04/11 14:23:49;;;;;;;4.30;2.55;;;;;;;9.00;92.34;99309.19;4933080;29;20038;-96
2023/04/11 14:26:29;;;;;;;4.53;2.53;;;;;;;8.94;92.77;99283.94;4912482;29;20048;-96
2023/04/11 14:29:01;;;;;;;3.67;2.13;;;;;;;8.92;92.20;99296.72;4898867;29;20039;-95
2023/04/11 14:31:57;;;;;;;4.70;2.47;;;;;;;9.12;93.48;99326.50;4931246;29;20123;-96
2023/04/11 14:35:53;;;;;;;5.97;2.85;;;;;;;9.08;93.53;99338.59;5007940;23;20051;-94
2023/04/11 14:48:42;;;;;;;6.47;2.58;;;;;;;8.92;93.90;99322.69;5030491;23;20351;-96
2023/04/11 14:51:13;;;;;;;4.90;2.50;;;;;;;8.60;93.39;99276.44;4962862;28;20411;-93
2023/04/11 14:57:10;;;;;;;4.38;2.78;;;;;;;8.62;94.32;99259.16;5078285;23;20054;-95
2023/04/11 15:00:21;;;;;;;4.45;2.53;;;;;;;8.97;93.19;99331.84;4923468;29;20088;-93
2023/04/11 15:02:54;;;;;;;4.20;2.10;;;;;;;8.83;94.10;99327.31;4897999;29;20135;-89
2023/04/11 15:05:41;;;;;;;3.15;2.00;;;;;;;8.73;94.77;99305.28;4907801;29;20052;-93
2023/04/11 15:08:09;;;;;;;4.20;2.67;;;;;;;8.83;94.67;99346.06;4904343;29;20051;-91
2023/04/11 15:11:06;;;;;;;3.53;2.20;;;;;;;8.72;94.22;99315.16;4908186;29;20047;-93
2023/04/11 15:13:39;;;;;;;3.53;2.15;;;;;;;8.57;95.52;99299.06;4989123;23;20100;-95
2023/04/11 15:40:37;;;;;;;2.38;1.42;;;;;;;8.64;94.74;99297.31;4927204;29;20052;-94
2023/04/11 15:43:05;;;;;;;2.90;1.80;;;;;;;8.72;94.92;99317.03;4887831;29;20123;-91
2023/04/11 15:45:35;;;;;;;3.70;2.30;;;;;;;8.43;95.67;99276.59;4893970;29;20048;-93
2023/04/11 15:48:12;;;;;;;4.93;3.50;;;;;;;8.47;96.23;99274.38;5027924;23;20563;-92
2023/04/11 16:00:20;;;;;;;;;;;;;;;;;;;;;
2023/04/11 16:07:58;;;;;;;3.30;2.00;;;;;;;8.40;96.08;99276.09;4973973;28;20346;-94
2023/04/11 16:10:39;;;;;;;3.13;2.20;;;;;;;8.31;96.51;99278.00;4962601;28;20027;-91
2023/04/11 16:13:11;;;;;;;3.53;2.10;;;;;;;8.39;96.44;99290.50;4931001;29;20054;-92
2023/04/11 16:39:56;;;;;;;6.47;3.10;;;;;;;8.53;98.82;99367.41;4972858;28;20201;-94
2023/04/11 16:42:26;;;;;;;3.67;1.90;;;;;;;8.43;98.24;99345.41;4934696;29;20039;-89
2023/04/11 19:36:46;;;;;;;;;;;;;;;8.69;99.51;99462.09;5049986;23;20092;-93
2023/04/11 19:49:57;;;;;;;3.33;2.05;;;;;;;8.64;99.92;99435.81;4936852;28;20338;-96
2023/04/11 19:56:22;;;;;;;3.40;2.17;;;;;;;8.78;97.67;99420.78;5034984;23;20108;-93
2023/04/11 20:22:43;;;;;;;5.88;2.92;;;;;;;8.77;98.04;99427.19;5027133;23;20059;-92
2023/04/11 20:25:10;;;;;;;4.60;2.83;;;;;;;8.55;97.82;99369.91;4974895;28;20171;-91
2023/04/11 20:27:38;;;;;;;5.90;3.20;;;;;;;8.62;97.85;99393.13;4931265;29;20039;-91
2023/04/11 20:30:17;;;;;;;4.20;2.50;;;;;;;8.66;98.13;99399.78;4924703;28;20039;-95
2023/04/11 20:32:44;;;;;;;6.63;2.65;;;;;;;8.89;98.35;99447.16;4936378;29;20055;-93
2023/04/11 20:35:14;;;;;;;3.60;2.35;;;;;;;8.82;97.83;99436.34;4929880;29;20046;-95
2023/04/11 20:37:42;;;;;;;3.83;2.28;;;;;;;8.50;98.32;99381.16;4944696;29;20047;-93
2023/04/11 20:42:58;;;;;;;3.60;2.20;;;;;;;8.77;98.90;99430.69;5517024;23;20088;31
2023/04/11 21:10:52;;;;;;;3.58;1.95;;;;;;;8.70;100.00;99428.91;5855291;23;20074;-94
2023/04/11 21:19:58;;;;;;;3.08;1.90;;;;;;;8.75;100.00;99434.56;4943389;29;20051;-93
2023/04/11 21:23:14;;;;;;;4.60;2.22;;;;;;;8.78;100.00;99436.88;4944972;29;20504;-94
2023/04/11 21:26:24;;;;;;;3.53;1.85;;;;;;;8.44;100.00;99403.28;4941095;29;20047;-93
2023/04/11 21:36:16;;;;;;;3.38;1.80;;;;;;;8.55;100.00;99427.00;4966882;28;20084;-95
2023/04/11 21:38:49;;;;;;;2.28;1.42;;;;;;;8.59;99.68;99425.63;4953054;28;20078;-95
2023/04/11 21:41:51;;;;;;;2.78;1.20;;;;;;;8.33;99.30;99412.53;4954185;28;20066;-96
2023/04/11 21:44:57;;;;;;;2.17;1.20;;;;;;;8.58;99.75;99444.56;4938926;28;20075;-94
2023/04/11 21:47:24;;;;;;;3.70;1.50;;;;;;;8.31;100.00;99401.19;4946617;28;20082;-95
2023/04/11 21:49:56;;;;;;;;;;;;;;;8.60;100.00;99439.88;4936110;29;20107;-95
2023/04/11 21:52:51;;;;;;;2.20;1.20;;;;;;;8.59;100.00;99439.03;4972442;28;19926;-94
2023/04/11 21:56:08;;;;;;;2.00;0.80;;;;;;;8.36;100.00;99424.75;4977322;28;20039;-96
2023/04/11 21:58:54;;;;;;;2.33;1.10;;;;;;;8.44;99.41;99454.19;4979478;28;20058;-95
2023/04/11 22:01:42;;;;;;;2.17;1.10;;;;;;;8.25;99.24;99413.41;4929445;28;20043;-95
2023/04/11 22:04:38;;;;;;;2.92;1.10;;;;;;;8.08;100.00;99401.16;4960115;28;20089;-94
2023/04/11 22:07:17;;;;;;;2.15;1.13;;;;;;;8.36;99.73;99446.19;4963078;28;20035;-94
2023/04/11 22:12:45;;;;;;;2.15;1.20;;;;;;;8.33;99.44;99431.28;4996442;23;20040;-94
2023/04/11 22:27:57;;;;;;;2.80;1.25;;;;;;;8.37;98.60;99429.09;5098996;23;20001;-96
2023/04/11 22:31:13;;;;;;;2.33;1.15;;;;;;;8.33;98.53;99439.31;5801134;23;20397;-96
2023/04/11 22:45:41;;;;;;;2.38;1.20;;;;;;;8.56;98.49;99442.03;5472234;23;20025;31
